Terminal Aerodrome Forecast
Issued by NWS

Home | Current Version | Previous Version | Text Only | Print | Product List | Glossary On
Versions: 1 2 3 4 5 6 7 8 9 10 11 12 13 14 15 16 17 18 19 20
779
FTAK31 PAJN 122352
TAFAKT
TAF
PAKT 122352Z 1300/1324 14010KT P6SM BKN070
      TEMPO 1300/1304 6SM -SHRA BR BKN015 OVC030
     FM130600 15010KT P6SM -SHRA OVC050
     FM130900 14010G25KT 6SM -SHRA BR FEW007 BKN020 OVC040
     FM131400 17010G20KT P6SM VCSH SCT020 OVC050
     FM132100 14014KT P6SM -RA OVC050=

USA.gov is the U.S. government's official web portal to all federal, state and local government web resources and services.